Time;durP1;ratioP1;P1;durP2;ratioP2;P2;SDS_P1;SDS_P2;PMS_P1;PMS_P2;Temp;Humidity;BMP_temperature;BMP_pressure;BME280_temperature;BME280_humidity;BME280_pressure;Samples;Min_cycle;Max_cycle;Signal;HPM_P1;HPM_P2
2020/12/28 00:01:34;;;;;;;0.40;0.40;;;6.20;99.90;;;;;;4844274;29;20493;-94
2020/12/28 00:04:00;;;;;;;0.40;0.40;;;6.10;99.90;;;;;;4850920;29;21030;-94
2020/12/28 00:06:26;;;;;;;0.57;0.53;;;6.10;99.90;;;;;;4854298;29;20488;-93
2020/12/28 00:08:52;;;;;;;0.80;0.60;;;6.00;99.90;;;;;;4842690;29;21850;-92
2020/12/28 00:11:18;;;;;;;0.50;0.50;;;5.90;99.90;;;;;;4848155;29;20464;-93
2020/12/28 00:13:45;;;;;;;0.50;0.47;;;5.80;99.90;;;;;;4850711;29;20208;-93
2020/12/28 00:16:14;;;;;;;0.83;0.40;;;5.80;99.90;;;;;;4849522;29;20526;-93
2020/12/28 00:18:41;;;;;;;0.90;0.60;;;5.80;99.90;;;;;;4855036;29;20450;-93
2020/12/28 00:21:07;;;;;;;2.03;0.60;;;5.80;99.90;;;;;;4852835;29;20492;-94
2020/12/28 00:23:33;;;;;;;0.60;0.60;;;5.80;99.90;;;;;;4846695;29;20457;-93
2020/12/28 00:25:59;;;;;;;0.50;0.47;;;5.80;99.90;;;;;;4847167;29;20546;-92
2020/12/28 00:28:25;;;;;;;0.40;0.40;;;5.90;99.90;;;;;;4856944;29;21006;-92
2020/12/28 00:30:52;;;;;;;1.00;0.60;;;5.90;99.90;;;;;;4855357;29;21460;-93
2020/12/28 00:33:18;;;;;;;1.57;0.60;;;5.90;99.90;;;;;;4855564;29;20507;-91
2020/12/28 00:35:46;;;;;;;0.63;0.53;;;6.00;99.90;;;;;;4854191;29;20833;-91
2020/12/28 00:38:12;;;;;;;1.60;0.50;;;6.00;99.90;;;;;;4848046;29;20679;-91
2020/12/28 00:40:38;;;;;;;0.73;0.50;;;6.10;99.90;;;;;;4847941;29;20549;-91
2020/12/28 00:43:03;;;;;;;0.60;0.40;;;6.10;99.90;;;;;;4844048;29;20560;-91
2020/12/28 00:45:29;;;;;;;0.60;0.50;;;6.10;99.90;;;;;;4838566;29;21213;-91
2020/12/28 00:47:57;;;;;;;0.50;0.50;;;6.20;99.90;;;;;;4849073;29;20890;-91
2020/12/28 00:50:23;;;;;;;1.03;0.60;;;6.20;99.90;;;;;;4851387;29;20678;-91
2020/12/28 00:52:49;;;;;;;0.50;0.50;;;6.20;99.90;;;;;;4835934;29;20457;-90
2020/12/28 00:55:15;;;;;;;0.63;0.50;;;6.20;99.90;;;;;;4850961;29;20472;-93
2020/12/28 00:57:40;;;;;;;0.57;0.57;;;6.20;99.90;;;;;;4852988;29;20223;-93
2020/12/28 01:00:07;;;;;;;0.70;0.53;;;6.20;99.90;;;;;;4852595;29;20670;-92
2020/12/28 01:02:32;;;;;;;0.73;0.50;;;6.20;99.90;;;;;;4848658;29;20207;-93
2020/12/28 01:04:58;;;;;;;1.37;0.60;;;6.20;99.90;;;;;;4843983;29;20513;-92
2020/12/28 01:07:24;;;;;;;0.50;0.33;;;6.20;99.90;;;;;;4845614;29;21451;-91
2020/12/28 01:09:50;;;;;;;2.80;0.73;;;6.10;99.90;;;;;;4852116;29;20230;-92
2020/12/28 01:12:15;;;;;;;0.50;0.40;;;6.10;99.90;;;;;;4850547;29;20663;-92
2020/12/28 01:14:41;;;;;;;0.30;0.30;;;6.00;99.90;;;;;;4850454;29;20212;-91
2020/12/28 01:17:07;;;;;;;1.37;0.40;;;6.00;99.90;;;;;;4851607;29;20209;-92
2020/12/28 01:19:33;;;;;;;0.40;0.40;;;6.00;99.90;;;;;;4846079;29;20199;-91
2020/12/28 01:21:59;;;;;;;0.77;0.50;;;6.00;99.90;;;;;;4851618;29;20478;-95
2020/12/28 01:24:32;;;;;;;0.70;0.57;;;6.00;99.90;;;;;;4848851;29;20238;-92
2020/12/28 01:27:07;;;;;;;0.60;0.50;;;6.10;99.90;;;;;;4847709;29;20811;-94
2020/12/28 01:29:39;;;;;;;0.60;0.43;;;6.10;99.90;;;;;;4848765;29;20296;-94
2020/12/28 01:32:08;;;;;;;1.40;0.33;;;6.10;99.90;;;;;;4856168;29;20547;-94
2020/12/28 01:34:33;;;;;;;0.40;0.40;;;6.00;99.90;;;;;;4854327;29;20956;-93
2020/12/28 01:37:02;;;;;;;0.30;0.30;;;6.00;99.90;;;;;;4848463;29;20482;-94
2020/12/28 01:39:27;;;;;;;0.33;0.33;;;6.10;99.90;;;;;;4851078;29;20677;-93
2020/12/28 01:41:53;;;;;;;1.00;0.30;;;6.10;99.90;;;;;;4851775;29;20814;-94
2020/12/28 01:44:19;;;;;;;0.30;0.30;;;6.10;99.90;;;;;;4847756;29;20218;-93
2020/12/28 01:46:44;;;;;;;0.30;0.27;;;6.00;99.90;;;;;;4851845;29;20548;-93
2020/12/28 01:49:10;;;;;;;0.30;0.20;;;6.00;99.90;;;;;;4855460;29;20299;-93
2020/12/28 01:51:36;;;;;;;0.40;0.40;;;5.90;99.90;;;;;;4854869;29;20206;-93
2020/12/28 01:54:17;;;;;;;0.37;0.30;;;5.90;99.90;;;;;;4858027;29;20206;-94
2020/12/28 01:56:46;;;;;;;1.07;0.40;;;5.90;99.90;;;;;;4852171;29;20465;-94
2020/12/28 01:59:12;;;;;;;0.50;0.50;;;5.90;99.90;;;;;;4853331;29;20441;-93
2020/12/28 02:01:41;;;;;;;0.40;0.30;;;5.80;99.90;;;;;;4806697;29;1273908;-93
2020/12/28 02:04:09;;;;;;;1.07;0.70;;;5.80;99.90;;;;;;4853162;29;20455;-91
2020/12/28 02:06:38;;;;;;;0.40;0.40;;;5.70;99.90;;;;;;4850990;29;21282;-93
2020/12/28 02:09:06;;;;;;;0.30;0.30;;;5.70;99.90;;;;;;4852365;29;20453;-92
2020/12/28 02:11:32;;;;;;;1.03;0.50;;;5.60;99.90;;;;;;4849440;29;21032;-92
2020/12/28 02:13:58;;;;;;;0.37;0.33;;;5.60;99.90;;;;;;4856327;29;20457;-92
2020/12/28 02:16:23;;;;;;;0.40;0.40;;;5.60;99.90;;;;;;4854627;29;20549;-96
2020/12/28 02:18:49;;;;;;;1.17;0.30;;;5.50;99.90;;;;;;4851772;29;20262;-93
2020/12/28 02:21:15;;;;;;;0.30;0.30;;;5.40;99.90;;;;;;4852750;29;20281;-95
2020/12/28 02:23:43;;;;;;;0.73;0.37;;;5.30;99.90;;;;;;4847257;29;20223;-94
2020/12/28 02:26:08;;;;;;;0.30;0.30;;;5.30;99.90;;;;;;4851555;29;20575;-93
2020/12/28 02:28:34;;;;;;;0.30;0.30;;;5.20;99.90;;;;;;4849721;29;20983;-93
2020/12/28 02:31:00;;;;;;;0.37;0.30;;;5.20;99.90;;;;;;4851716;29;20226;-96
2020/12/28 02:33:25;;;;;;;0.40;0.30;;;5.20;99.90;;;;;;4855085;29;20815;-94
2020/12/28 02:35:51;;;;;;;0.30;0.30;;;5.20;99.90;;;;;;4851366;29;20202;-93
2020/12/28 02:38:17;;;;;;;0.40;0.40;;;5.20;99.90;;;;;;4850881;29;20298;-93
2020/12/28 02:40:43;;;;;;;0.97;0.20;;;5.30;99.90;;;;;;4853506;29;20646;-93
2020/12/28 02:43:08;;;;;;;0.50;0.43;;;5.20;99.90;;;;;;4849849;29;20589;-93
2020/12/28 02:45:34;;;;;;;0.30;0.30;;;5.30;99.90;;;;;;4856707;29;20308;-96
2020/12/28 02:48:00;;;;;;;0.70;0.30;;;5.30;99.90;;;;;;4854016;29;20197;-95
2020/12/28 02:50:26;;;;;;;0.60;0.30;;;5.20;99.90;;;;;;4853334;29;20686;-95
2020/12/28 02:52:57;;;;;;;0.30;0.30;;;5.20;99.90;;;;;;4858055;29;20218;-95
2020/12/28 02:55:37;;;;;;;0.30;0.30;;;5.20;99.90;;;;;;4853716;29;20325;-95
2020/12/28 02:58:17;;;;;;;0.83;0.20;;;5.20;99.90;;;;;;4854465;29;20689;-95
2020/12/28 03:03:14;;;;;;;0.47;0.40;;;5.20;99.90;;;;;;4852459;29;20600;-94
2020/12/28 03:05:40;;;;;;;0.30;0.20;;;5.30;99.90;;;;;;4855950;29;20487;-95
2020/12/28 03:08:15;;;;;;;1.20;0.40;;;5.30;99.90;;;;;;4850424;29;20191;-96
2020/12/28 03:10:41;;;;;;;0.80;0.70;;;5.30;99.90;;;;;;4848889;29;20252;-95
2020/12/28 03:13:06;;;;;;;0.30;0.30;;;5.30;99.90;;;;;;4849338;29;21459;-94
2020/12/28 03:15:40;;;;;;;1.00;0.43;;;5.40;99.90;;;;;;4847721;29;20210;-95
2020/12/28 03:18:07;;;;;;;0.30;0.30;;;5.30;99.90;;;;;;4848901;29;20445;-96
2020/12/28 03:20:33;;;;;;;0.27;0.27;;;5.40;99.90;;;;;;4855865;29;20473;-94
2020/12/28 03:22:58;;;;;;;0.43;0.30;;;5.40;99.90;;;;;;4854011;29;20457;-94
2020/12/28 03:25:24;;;;;;;0.40;0.30;;;5.40;99.90;;;;;;4855212;29;20226;-95
2020/12/28 03:27:50;;;;;;;0.60;0.20;;;5.40;99.90;;;;;;4854064;29;20571;-95
2020/12/28 03:30:15;;;;;;;0.30;0.30;;;5.40;99.90;;;;;;4852961;29;20203;-95
2020/12/28 03:32:41;;;;;;;0.40;0.40;;;5.40;99.90;;;;;;4854531;29;20288;-96
2020/12/28 03:35:07;;;;;;;0.53;0.40;;;5.40;99.90;;;;;;4860106;29;20192;-96
2020/12/28 03:37:33;;;;;;;0.93;0.30;;;5.40;99.90;;;;;;4852777;29;20611;-96
2020/12/28 03:39:59;;;;;;;0.97;0.40;;;5.50;99.90;;;;;;4839489;29;20638;-96
2020/12/28 03:42:24;;;;;;;0.30;0.30;;;5.50;99.90;;;;;;4857672;29;20551;-95
2020/12/28 03:44:50;;;;;;;0.60;0.50;;;5.50;99.90;;;;;;4857348;29;20376;-95
2020/12/28 03:47:16;;;;;;;0.30;0.30;;;5.50;99.90;;;;;;4851996;29;20698;-96
2020/12/28 03:49:43;;;;;;;0.40;0.30;;;5.50;99.90;;;;;;4854332;29;20188;-95
2020/12/28 03:52:09;;;;;;;0.40;0.30;;;5.50;99.90;;;;;;4854416;29;20479;-96
2020/12/28 03:54:35;;;;;;;1.13;0.40;;;5.50;99.90;;;;;;4853905;29;20204;-94
2020/12/28 03:57:00;;;;;;;0.40;0.40;;;5.50;99.90;;;;;;4856176;29;20223;-91
2020/12/28 03:59:34;;;;;;;0.40;0.40;;;5.40;99.90;;;;;;4851457;29;20192;-93
2020/12/28 04:02:00;;;;;;;0.40;0.40;;;5.40;99.90;;;;;;4852781;29;20986;-93
2020/12/28 04:04:26;;;;;;;0.50;0.50;;;5.30;99.90;;;;;;4849445;29;20218;-93
2020/12/28 04:06:52;;;;;;;0.40;0.30;;;5.30;99.90;;;;;;4847021;29;20817;-93
2020/12/28 04:09:18;;;;;;;0.40;0.30;;;5.20;99.90;;;;;;4854228;29;20266;-92
2020/12/28 04:11:43;;;;;;;0.60;0.30;;;5.20;99.90;;;;;;4852360;29;20204;-92
2020/12/28 04:14:09;;;;;;;0.63;0.33;;;5.20;99.90;;;;;;4852461;29;20299;-93
2020/12/28 04:16:35;;;;;;;0.73;0.47;;;5.20;99.90;;;;;;4852300;29;20778;-93
2020/12/28 04:19:00;;;;;;;0.53;0.40;;;5.20;99.90;;;;;;4852997;29;20207;-93
2020/12/28 04:21:26;;;;;;;0.50;0.43;;;5.20;99.90;;;;;;4848773;29;20214;-93
2020/12/28 04:23:52;;;;;;;2.20;0.50;;;5.10;99.90;;;;;;4853037;29;20288;-90
2020/12/28 04:26:18;;;;;;;1.93;1.13;;;5.00;99.90;;;;;;4848900;29;20510;-92
2020/12/28 04:28:51;;;;;;;0.40;0.30;;;5.00;99.90;;;;;;4849691;29;20290;-94
2020/12/28 04:31:23;;;;;;;0.50;0.50;;;5.00;99.90;;;;;;4852589;29;20567;-93
2020/12/28 04:33:48;;;;;;;0.20;0.20;;;5.10;99.90;;;;;;4856608;29;20465;-94
2020/12/28 04:36:14;;;;;;;0.83;0.50;;;5.20;99.90;;;;;;4850916;29;20462;-94
2020/12/28 04:38:40;;;;;;;0.50;0.50;;;5.10;99.90;;;;;;4851854;29;20224;-94
2020/12/28 04:41:21;;;;;;;0.93;0.50;;;5.10;99.90;;;;;;4856344;29;20202;-94
2020/12/28 04:43:47;;;;;;;1.07;0.80;;;5.10;99.90;;;;;;4853340;29;20632;-94
2020/12/28 04:46:13;;;;;;;1.60;0.60;;;5.10;99.90;;;;;;4857687;29;20503;-96
2020/12/28 04:48:40;;;;;;;1.27;0.60;;;5.10;99.90;;;;;;4856447;29;20541;-96
2020/12/28 04:51:06;;;;;;;0.97;0.50;;;5.10;99.90;;;;;;4856255;29;20468;-96
2020/12/28 04:53:34;;;;;;;1.57;1.47;;;5.10;99.90;;;;;;4862257;29;20461;-96
2020/12/28 04:56:00;;;;;;;2.03;1.43;;;5.10;99.90;;;;;;4865999;29;20196;-96
2020/12/28 04:58:26;;;;;;;0.80;0.80;;;5.10;99.90;;;;;;4868614;29;20518;-96
2020/12/28 05:00:59;;;;;;;1.13;0.50;;;5.10;99.90;;;;;;4862005;29;20200;-96
2020/12/28 05:03:29;;;;;;;0.60;0.40;;;5.10;99.90;;;;;;4853618;29;20623;-94
2020/12/28 05:05:55;;;;;;;0.57;0.57;;;5.10;99.90;;;;;;4848190;29;20571;-95
2020/12/28 05:08:22;;;;;;;1.30;0.40;;;5.30;99.90;;;;;;4844577;29;20524;-95
2020/12/28 05:10:51;;;;;;;1.33;0.63;;;5.30;99.90;;;;;;4857745;29;20456;-93
2020/12/28 05:13:19;;;;;;;0.40;0.40;;;5.20;99.90;;;;;;4855746;29;20493;-96
2020/12/28 05:18:20;;;;;;;0.60;0.50;;;5.20;99.90;;;;;;4859301;29;20464;-93
2020/12/28 05:20:48;;;;;;;0.40;0.40;;;5.20;99.90;;;;;;4855740;29;20472;-95
2020/12/28 05:23:15;;;;;;;0.50;0.50;;;5.20;99.90;;;;;;4854052;29;20184;-96
2020/12/28 05:25:43;;;;;;;0.37;0.37;;;5.20;99.90;;;;;;4856373;29;20483;-95
2020/12/28 05:28:14;;;;;;;1.13;0.47;;;5.20;99.90;;;;;;4848007;29;20471;-95
2020/12/28 05:30:44;;;;;;;0.73;0.50;;;5.20;99.90;;;;;;4849499;29;20441;-93
2020/12/28 05:33:10;;;;;;;0.50;0.33;;;5.20;99.90;;;;;;4852811;29;20509;-94
2020/12/28 05:35:36;;;;;;;0.60;0.60;;;5.10;99.90;;;;;;4854742;29;20499;-93
2020/12/28 05:38:06;;;;;;;0.70;0.53;;;5.10;99.90;;;;;;4854904;29;20680;-94
2020/12/28 05:40:38;;;;;;;1.33;0.60;;;5.10;99.90;;;;;;4851209;29;20447;-94
2020/12/28 05:43:07;;;;;;;0.50;0.50;;;5.00;99.90;;;;;;4851811;29;20447;-94
2020/12/28 05:45:44;;;;;;;1.20;0.60;;;4.90;99.90;;;;;;4855629;29;20497;-94
2020/12/28 05:48:17;;;;;;;0.40;0.40;;;4.90;99.90;;;;;;4852971;29;20463;-93
2020/12/28 05:50:43;;;;;;;0.40;0.40;;;4.90;99.90;;;;;;4847663;29;20471;-94
2020/12/28 05:53:10;;;;;;;0.60;0.50;;;4.90;99.90;;;;;;4856233;29;20706;-94
2020/12/28 05:55:39;;;;;;;0.37;0.37;;;4.90;99.90;;;;;;4852671;29;20555;-94
2020/12/28 05:58:06;;;;;;;0.80;0.47;;;4.90;99.90;;;;;;4857355;29;20456;-95
2020/12/28 06:00:37;;;;;;;0.40;0.40;;;4.90;99.90;;;;;;4854663;29;20611;-94
2020/12/28 06:03:08;;;;;;;3.23;0.77;;;4.90;99.90;;;;;;4850881;29;20530;-95
2020/12/28 06:05:35;;;;;;;0.57;0.40;;;4.90;99.90;;;;;;4854811;29;20490;-94
2020/12/28 06:08:01;;;;;;;1.23;0.60;;;4.90;99.90;;;;;;4855633;29;20451;-94
2020/12/28 06:10:42;;;;;;;0.73;0.73;;;4.90;99.90;;;;;;4850968;29;20459;-95
2020/12/28 06:13:08;;;;;;;0.50;0.50;;;4.90;99.90;;;;;;4852790;29;20203;-93
2020/12/28 06:15:33;;;;;;;0.60;0.40;;;4.80;99.90;;;;;;4851168;29;20482;-94
2020/12/28 06:21:12;;;;;;;0.40;0.40;;;4.80;99.90;;;;;;4851120;29;20206;-93
2020/12/28 06:23:38;;;;;;;1.50;0.60;;;4.80;99.90;;;;;;4853605;29;20453;-86
2020/12/28 06:26:04;;;;;;;1.40;0.40;;;4.80;99.90;;;;;;4848408;29;20540;-84
2020/12/28 06:28:30;;;;;;;0.37;0.37;;;4.80;99.90;;;;;;4849875;29;20822;-88
2020/12/28 06:31:08;;;;;;;0.33;0.30;;;4.80;99.90;;;;;;4847086;29;20515;-86
2020/12/28 06:33:35;;;;;;;1.17;0.40;;;4.80;99.90;;;;;;4842847;29;20187;-86
2020/12/28 06:36:12;;;;;;;1.20;0.60;;;4.70;99.90;;;;;;4845887;29;20849;-86
2020/12/28 06:38:37;;;;;;;0.80;0.50;;;4.70;99.90;;;;;;4846721;29;20448;-86
2020/12/28 06:41:06;;;;;;;0.50;0.50;;;4.70;99.90;;;;;;4845857;29;20473;-86
2020/12/28 06:43:39;;;;;;;0.57;0.57;;;4.70;99.90;;;;;;4849445;29;20247;-86
2020/12/28 06:46:04;;;;;;;0.60;0.60;;;4.70;99.90;;;;;;4846246;29;20940;-85
2020/12/28 06:48:30;;;;;;;0.73;0.70;;;4.70;99.90;;;;;;4859608;29;20466;-87
2020/12/28 06:51:08;;;;;;;1.47;0.67;;;4.70;99.90;;;;;;4851472;29;20202;-87
2020/12/28 06:53:34;;;;;;;0.60;0.60;;;4.80;99.90;;;;;;4849725;29;20187;-86
2020/12/28 06:56:15;;;;;;;0.50;0.50;;;4.70;99.90;;;;;;4850011;29;20451;-86
2020/12/28 06:58:41;;;;;;;0.50;0.50;;;4.70;99.90;;;;;;4853319;29;20225;-86
2020/12/28 07:01:07;;;;;;;0.83;0.80;;;4.70;99.90;;;;;;4847237;29;20514;-85
2020/12/28 07:03:33;;;;;;;0.80;0.80;;;4.70;99.90;;;;;;4850606;29;20205;-86
2020/12/28 07:06:05;;;;;;;1.20;1.00;;;4.70;99.90;;;;;;4853478;29;20511;-86
2020/12/28 07:08:37;;;;;;;0.60;0.60;;;4.70;99.90;;;;;;4851542;29;20443;-85
2020/12/28 07:11:07;;;;;;;0.50;0.50;;;4.60;99.90;;;;;;4848703;29;20435;-85
2020/12/28 07:13:33;;;;;;;0.93;0.60;;;4.60;99.90;;;;;;4850761;29;20431;-86
2020/12/28 07:16:03;;;;;;;3.50;0.50;;;4.60;99.90;;;;;;4849836;29;21038;-86
2020/12/28 07:18:29;;;;;;;1.03;0.93;;;4.50;99.90;;;;;;4849147;29;20634;-87
2020/12/28 07:21:02;;;;;;;0.83;0.77;;;4.50;99.90;;;;;;4851511;29;20453;-86
2020/12/28 07:23:34;;;;;;;1.07;0.93;;;4.50;99.90;;;;;;4847402;29;20226;-87
2020/12/28 07:26:11;;;;;;;0.80;0.80;;;4.50;99.90;;;;;;4849779;29;20490;-86
2020/12/28 07:29:01;;;;;;;1.00;0.60;;;4.50;99.90;;;;;;4850135;29;20439;-87
2020/12/28 07:31:30;;;;;;;0.60;0.60;;;4.50;99.90;;;;;;4843511;29;20451;-87
2020/12/28 07:33:55;;;;;;;0.60;0.60;;;4.60;99.90;;;;;;4846500;29;20524;-88
2020/12/28 07:36:24;;;;;;;0.60;0.53;;;4.50;99.90;;;;;;4844251;29;21376;-86
2020/12/28 07:38:50;;;;;;;0.80;0.80;;;4.50;99.90;;;;;;4845839;29;20195;-86
2020/12/28 07:41:26;;;;;;;1.80;0.90;;;4.60;99.90;;;;;;4846805;29;20829;-87
2020/12/28 07:43:56;;;;;;;2.30;2.10;;;4.60;99.90;;;;;;4845167;29;20536;-87
2020/12/28 07:46:31;;;;;;;1.40;0.97;;;4.60;99.90;;;;;;4848972;29;20499;-86
2020/12/28 07:49:37;;;;;;;1.47;1.17;;;4.50;99.90;;;;;;4845910;29;20975;-89
2020/12/28 07:52:10;;;;;;;0.93;0.80;;;4.40;99.90;;;;;;4775084;29;21000;-94
2020/12/28 07:54:47;;;;;;;0.73;0.73;;;4.40;99.90;;;;;;4781242;29;20486;-88
2020/12/28 07:57:22;;;;;;;0.97;0.50;;;4.40;99.90;;;;;;4823130;29;20444;-89
2020/12/28 08:00:11;;;;;;;0.73;0.73;;;4.50;99.90;;;;;;4849494;29;20457;-93
2020/12/28 08:05:17;;;;;;;0.63;0.60;;;4.60;99.90;;;;;;4861799;23;20510;-92
2020/12/28 08:07:43;;;;;;;0.80;0.70;;;4.70;99.90;;;;;;4850564;29;20546;-92
2020/12/28 08:10:10;;;;;;;0.60;0.60;;;4.80;99.90;;;;;;4850289;29;20579;-94
2020/12/28 08:12:51;;;;;;;0.70;0.70;;;4.90;99.90;;;;;;4849614;29;20187;-92
2020/12/28 08:15:35;;;;;;;0.60;0.60;;;5.00;99.90;;;;;;4863824;29;20478;-94
2020/12/28 08:18:11;;;;;;;0.50;0.50;;;5.10;99.90;;;;;;4842821;29;20502;-96
2020/12/28 08:20:39;;;;;;;2.00;1.60;;;5.00;99.90;;;;;;4866974;29;20439;-95
2020/12/28 08:23:05;;;;;;;3.40;1.60;;;4.90;99.90;;;;;;4863203;29;20451;-96
2020/12/28 08:25:41;;;;;;;2.40;1.77;;;4.90;99.90;;;;;;4936633;24;20540;-96
2020/12/28 08:28:27;;;;;;;1.00;0.67;;;4.80;99.90;;;;;;4854407;29;20478;-96
2020/12/28 08:30:57;;;;;;;6.43;3.37;;;4.80;99.90;;;;;;4886460;29;20457;-95
2020/12/28 08:33:23;;;;;;;1.00;0.90;;;4.70;99.90;;;;;;4856094;29;20458;-96
2020/12/28 08:35:51;;;;;;;1.60;1.50;;;4.70;99.90;;;;;;4863229;29;20467;-95
2020/12/28 08:38:18;;;;;;;2.50;1.80;;;4.60;99.90;;;;;;4856661;29;20227;-93
2020/12/28 08:40:59;;;;;;;1.97;1.67;;;4.60;99.90;;;;;;4842569;29;20866;-89
2020/12/28 08:43:25;;;;;;;3.00;2.10;;;4.50;99.90;;;;;;4845509;29;20531;-92
2020/12/28 08:46:03;;;;;;;1.10;1.10;;;4.60;99.90;;;;;;4846977;29;20608;-90
2020/12/28 08:48:29;;;;;;;1.40;1.30;;;4.60;99.90;;;;;;4846425;29;20641;-91
2020/12/28 08:50:54;;;;;;;1.53;1.43;;;4.60;99.90;;;;;;4845293;29;20440;-91
2020/12/28 08:53:22;;;;;;;1.00;1.00;;;4.60;99.90;;;;;;4848217;29;20198;-96
2020/12/28 08:56:02;;;;;;;1.97;1.50;;;4.60;99.90;;;;;;4857405;29;20175;-93
2020/12/28 08:58:30;;;;;;;2.20;1.40;;;4.70;99.90;;;;;;4847915;29;20449;-96
2020/12/28 09:01:03;;;;;;;1.60;1.50;;;4.70;99.90;;;;;;4863859;29;20451;-93
2020/12/28 09:03:36;;;;;;;2.00;1.67;;;4.70;99.90;;;;;;4853034;29;20447;-89
2020/12/28 09:06:07;;;;;;;2.87;2.10;;;4.70;99.90;;;;;;4848203;29;20486;-88
2020/12/28 09:08:38;;;;;;;2.30;2.10;;;4.80;99.90;;;;;;4843782;29;20480;-92
2020/12/28 09:11:06;;;;;;;2.17;1.70;;;4.90;99.90;;;;;;4852268;29;20448;-95
2020/12/28 09:13:31;;;;;;;2.43;2.20;;;4.90;99.90;;;;;;4847454;29;20535;-93
2020/12/28 09:16:07;;;;;;;3.10;2.80;;;4.90;99.90;;;;;;4854413;29;20503;-96
2020/12/28 09:18:36;;;;;;;3.60;3.30;;;5.00;99.90;;;;;;4855072;29;20233;-94
2020/12/28 09:21:02;;;;;;;1.97;1.77;;;5.00;99.90;;;;;;4854099;29;20443;-93
2020/12/28 09:23:27;;;;;;;2.23;2.07;;;5.10;99.90;;;;;;4851079;29;20446;-95
2020/12/28 09:26:02;;;;;;;1.90;1.57;;;5.10;99.90;;;;;;4856011;29;20349;-96
2020/12/28 09:29:04;;;;;;;2.40;1.73;;;5.20;99.90;;;;;;4867835;29;20520;-96
2020/12/28 09:31:36;;;;;;;2.17;1.97;;;5.20;99.90;;;;;;4886902;29;20447;-96
2020/12/28 09:34:02;;;;;;;3.10;2.07;;;5.10;99.90;;;;;;4866763;29;20472;-96
2020/12/28 09:36:40;;;;;;;1.90;1.70;;;5.10;99.90;;;;;;4862434;29;20526;-96
2020/12/28 09:39:06;;;;;;;2.00;1.40;;;5.10;99.90;;;;;;4884721;29;20443;-96
2020/12/28 09:41:32;;;;;;;1.90;1.40;;;5.20;99.90;;;;;;4852384;29;20284;-96
2020/12/28 09:43:58;;;;;;;1.57;1.27;;;5.30;99.90;;;;;;4857201;29;20448;-96
2020/12/28 09:46:27;;;;;;;1.30;1.17;;;5.30;99.90;;;;;;4856666;29;20254;-96
2020/12/28 09:49:14;;;;;;;2.57;1.60;;;5.20;99.90;;;;;;4857649;29;20222;-96
2020/12/28 09:54:34;;;;;;;1.60;1.50;;;5.00;99.90;;;;;;4859973;29;20972;-96
2020/12/28 09:57:06;;;;;;;1.77;1.67;;;5.00;99.90;;;;;;4856569;29;20451;-96
2020/12/28 09:59:37;;;;;;;2.47;2.27;;;5.00;99.90;;;;;;4856010;29;20445;-96
2020/12/28 10:02:03;;;;;;;2.27;2.10;;;5.00;99.90;;;;;;4860260;29;20467;-95
2020/12/28 10:04:32;;;;;;;2.30;2.10;;;5.00;99.90;;;;;;4866566;29;20447;-96
2020/12/28 10:38:37;;;;;;;3.80;3.50;;;5.30;99.90;;;;;;4844180;29;20543;-91
2020/12/28 10:41:03;;;;;;;3.40;3.13;;;5.40;99.90;;;;;;4847818;29;20461;-90
2020/12/28 10:43:29;;;;;;;2.90;2.70;;;5.40;99.90;;;;;;4846812;29;20451;-91
2020/12/28 10:45:54;;;;;;;3.33;3.00;;;5.30;99.90;;;;;;4846302;29;20706;-93
2020/12/28 10:48:20;;;;;;;2.87;2.67;;;5.30;99.90;;;;;;4844405;29;20212;-88
2020/12/28 10:50:46;;;;;;;4.07;3.60;;;5.30;99.90;;;;;;4842221;29;20203;-90
2020/12/28 10:53:11;;;;;;;4.03;3.73;;;5.30;99.90;;;;;;4839893;29;20206;-92
2020/12/28 10:55:41;;;;;;;2.60;2.40;;;5.30;99.90;;;;;;4849457;29;20326;-91
2020/12/28 10:58:07;;;;;;;3.03;2.83;;;5.40;99.90;;;;;;4846371;29;20198;-91
2020/12/28 11:00:33;;;;;;;3.77;3.40;;;5.40;99.90;;;;;;4850583;29;20802;-89
2020/12/28 11:02:58;;;;;;;4.77;4.30;;;5.40;99.90;;;;;;4841347;29;20203;-90
2020/12/28 11:05:24;;;;;;;3.60;3.30;;;5.30;99.90;;;;;;4845470;29;20253;-91
2020/12/28 11:07:49;;;;;;;3.30;3.00;;;5.40;99.90;;;;;;4843228;29;20222;-92
2020/12/28 11:10:15;;;;;;;4.23;3.80;;;5.40;99.90;;;;;;4846070;29;20204;-92
2020/12/28 11:12:41;;;;;;;3.60;3.30;;;5.40;99.90;;;;;;4841898;29;20198;-91
2020/12/28 11:15:06;;;;;;;3.53;3.23;;;5.50;99.90;;;;;;4840395;29;20192;-90
2020/12/28 11:17:32;;;;;;;4.93;4.13;;;5.50;99.90;;;;;;4842970;29;20205;-92
2020/12/28 11:19:58;;;;;;;4.50;3.93;;;5.50;99.90;;;;;;4857075;29;20218;-91
2020/12/28 11:22:23;;;;;;;5.60;4.60;;;5.60;99.90;;;;;;4866036;29;20211;-92
2020/12/28 11:24:49;;;;;;;4.93;4.40;;;5.60;99.90;;;;;;4863898;29;20229;-93
2020/12/28 11:27:50;;;;;;;5.10;4.60;;;5.60;99.90;;;;;;4873836;29;20214;-96
2020/12/28 11:30:39;;;;;;;7.23;5.60;;;5.70;99.90;;;;;;4897345;24;20219;-96
2020/12/28 11:33:13;;;;;;;5.07;4.57;;;5.70;99.90;;;;;;4905047;29;20502;-96
2020/12/28 11:35:41;;;;;;;5.27;4.77;;;5.80;99.90;;;;;;4979086;23;20483;-94
2020/12/28 12:04:00;;;;;;;4.80;4.10;;;6.20;99.90;;;;;;2598994;23;21069;-90
2020/12/28 12:06:26;;;;;;;4.80;4.33;;;6.20;99.90;;;;;;4851511;29;20453;-89
2020/12/28 12:11:38;;;;;;;4.40;3.97;;;6.20;99.90;;;;;;4852443;29;20209;-92
2020/12/28 12:14:04;;;;;;;3.93;3.63;;;6.20;99.90;;;;;;4851744;29;20438;-91
2020/12/28 12:16:30;;;;;;;3.67;3.30;;;6.20;99.90;;;;;;4849351;29;20479;-92
2020/12/28 12:18:56;;;;;;;3.60;3.30;;;6.10;99.90;;;;;;4850646;29;20441;-90
2020/12/28 12:21:23;;;;;;;3.97;3.57;;;6.20;99.90;;;;;;4853339;29;20456;-92
2020/12/28 12:23:49;;;;;;;3.60;3.30;;;6.20;99.90;;;;;;4853521;29;20203;-90
2020/12/28 12:26:21;;;;;;;3.40;3.00;;;6.20;99.90;;;;;;4855137;29;20960;-91
2020/12/28 12:28:56;;;;;;;3.07;2.87;;;6.30;99.90;;;;;;4855881;29;20497;-91
2020/12/28 12:31:22;;;;;;;2.47;2.27;;;6.30;99.90;;;;;;4854843;29;20440;-91
2020/12/28 12:33:55;;;;;;;2.33;2.13;;;6.20;99.90;;;;;;4854076;29;21020;-90
2020/12/28 12:36:23;;;;;;;3.00;2.10;;;6.10;99.90;;;;;;4852163;29;20245;-91
2020/12/28 12:38:54;;;;;;;2.17;1.97;;;6.10;99.90;;;;;;4852291;29;20447;-90
2020/12/28 12:41:38;;;;;;;1.90;1.80;;;6.10;99.90;;;;;;4854526;29;20456;-90
2020/12/28 12:44:13;;;;;;;2.80;2.13;;;6.00;99.90;;;;;;4851952;29;20475;-91
2020/12/28 12:46:53;;;;;;;1.70;1.60;;;5.90;99.90;;;;;;4854939;29;20443;-91
2020/12/28 12:49:33;;;;;;;0.97;0.97;;;5.70;99.90;;;;;;4853101;29;21005;-91
2020/12/28 12:52:18;;;;;;;0.90;0.90;;;5.60;99.90;;;;;;4855036;29;20815;-90
2020/12/28 12:54:44;;;;;;;1.87;1.40;;;5.60;99.90;;;;;;4856130;29;20471;-89
2020/12/28 12:57:10;;;;;;;2.40;1.20;;;5.50;99.90;;;;;;4853524;29;20478;-92
2020/12/28 13:02:32;;;;;;;1.57;1.30;;;5.50;99.90;;;;;;4856882;29;20534;-92
2020/12/28 13:05:03;;;;;;;1.40;1.30;;;5.40;99.90;;;;;;4852937;29;21087;-91
2020/12/28 13:07:29;;;;;;;1.40;0.90;;;5.40;99.90;;;;;;4850745;29;20453;-90
2020/12/28 13:09:55;;;;;;;1.17;1.17;;;5.30;99.90;;;;;;4853670;29;20464;-90
2020/12/28 13:12:21;;;;;;;1.30;1.07;;;5.30;99.90;;;;;;4853971;29;20212;-91
2020/12/28 13:14:47;;;;;;;1.20;1.10;;;5.40;99.90;;;;;;4853238;29;20231;-92
2020/12/28 13:17:14;;;;;;;1.00;0.90;;;5.40;99.90;;;;;;4854410;29;20475;-93
2020/12/28 13:19:40;;;;;;;1.80;1.20;;;5.30;99.90;;;;;;4854287;29;20439;-87
2020/12/28 13:22:06;;;;;;;1.07;1.07;;;5.30;99.90;;;;;;4852092;29;20481;-91
2020/12/28 13:24:31;;;;;;;1.67;1.30;;;5.30;99.90;;;;;;4853456;29;20470;-90
2020/12/28 13:26:57;;;;;;;1.60;1.33;;;5.30;99.90;;;;;;4854473;29;21117;-90
2020/12/28 13:29:26;;;;;;;2.60;2.03;;;5.40;99.90;;;;;;4854186;29;20202;-89
2020/12/28 13:31:55;;;;;;;1.60;1.50;;;5.30;99.90;;;;;;4851069;29;20202;-91
2020/12/28 13:34:31;;;;;;;1.60;1.50;;;5.30;99.90;;;;;;4836980;29;20463;-87
2020/12/28 13:36:57;;;;;;;1.37;0.90;;;5.30;99.90;;;;;;4851960;29;20494;-89
2020/12/28 13:39:26;;;;;;;1.20;1.10;;;5.30;99.90;;;;;;4853878;29;20482;-92
2020/12/28 13:41:51;;;;;;;1.27;1.17;;;5.30;99.90;;;;;;4854543;29;20187;-92
2020/12/28 13:44:20;;;;;;;1.47;1.20;;;5.30;99.90;;;;;;4860820;29;20474;-96
2020/12/28 13:46:47;;;;;;;1.00;0.90;;;5.30;99.90;;;;;;4855735;29;20447;-93
2020/12/28 13:49:14;;;;;;;1.57;1.30;;;5.30;99.90;;;;;;4858677;29;20460;-93
2020/12/28 13:51:40;;;;;;;1.40;1.30;;;5.20;99.90;;;;;;4849245;29;20530;-89
2020/12/28 13:54:07;;;;;;;2.50;2.10;;;5.20;99.90;;;;;;4852559;29;20530;-87
2020/12/28 13:56:33;;;;;;;2.77;1.70;;;5.30;99.90;;;;;;4848416;29;20470;-92
2020/12/28 13:58:59;;;;;;;1.50;1.40;;;5.30;99.90;;;;;;4850889;29;20439;-91
2020/12/28 14:01:25;;;;;;;2.20;1.30;;;5.30;99.90;;;;;;4849562;29;20200;-92
2020/12/28 14:03:53;;;;;;;3.20;2.23;;;5.20;99.90;;;;;;4849963;29;20454;-92
2020/12/28 14:06:19;;;;;;;4.53;2.80;;;5.20;99.90;;;;;;4852472;29;20461;-91
2020/12/28 14:08:47;;;;;;;2.20;1.60;;;5.20;99.90;;;;;;4851853;29;20487;-92
2020/12/28 14:11:17;;;;;;;1.57;1.47;;;5.20;99.90;;;;;;4852128;29;20451;-92
2020/12/28 14:13:46;;;;;;;1.63;1.43;;;5.20;99.90;;;;;;4851797;29;20471;-93
2020/12/28 14:16:14;;;;;;;2.90;1.50;;;5.20;99.90;;;;;;4852385;29;20490;-94
2020/12/28 14:18:40;;;;;;;1.50;1.33;;;5.10;99.90;;;;;;4851570;29;20439;-93
2020/12/28 14:21:07;;;;;;;1.03;0.73;;;5.10;99.90;;;;;;4853198;29;20451;-93
2020/12/28 14:23:36;;;;;;;1.23;1.13;;;5.00;99.90;;;;;;4854407;29;20556;-95